sensor_id;sensor_type;location;lat;lon;timestamp;P1;durP1;ratioP1;P2;durP2;ratioP2
24873;SDS011;12945;42.648;23.370;2022-12-13T00:00:23;13.02;;;6.28;;
24873;SDS011;12945;42.648;23.370;2022-12-13T00:02:48;10.43;;;6.18;;
24873;SDS011;12945;42.648;23.370;2022-12-13T00:05:14;14.27;;;6.53;;
24873;SDS011;12945;42.648;23.370;2022-12-13T00:07:39;13.55;;;6.88;;
24873;SDS011;12945;42.648;23.370;2022-12-13T00:10:04;12.45;;;7.10;;
24873;SDS011;12945;42.648;23.370;2022-12-13T00:12:30;12.60;;;6.88;;
24873;SDS011;12945;42.648;23.370;2022-12-13T00:14:56;12.45;;;7.57;;
24873;SDS011;12945;42.648;23.370;2022-12-13T00:17:21;12.32;;;7.20;;
24873;SDS011;12945;42.648;23.370;2022-12-13T00:19:46;12.23;;;7.00;;
24873;SDS011;12945;42.648;23.370;2022-12-13T00:22:12;14.27;;;7.85;;
24873;SDS011;12945;42.648;23.370;2022-12-13T00:24:37;13.27;;;7.40;;
24873;SDS011;12945;42.648;23.370;2022-12-13T00:27:03;14.77;;;7.55;;
24873;SDS011;12945;42.648;23.370;2022-12-13T00:29:28;12.98;;;7.30;;
24873;SDS011;12945;42.648;23.370;2022-12-13T00:31:53;13.85;;;7.22;;
24873;SDS011;12945;42.648;23.370;2022-12-13T00:34:19;12.32;;;7.20;;
24873;SDS011;12945;42.648;23.370;2022-12-13T00:36:44;15.60;;;8.07;;
24873;SDS011;12945;42.648;23.370;2022-12-13T00:39:10;13.20;;;7.38;;
24873;SDS011;12945;42.648;23.370;2022-12-13T00:41:37;15.00;;;7.22;;
24873;SDS011;12945;42.648;23.370;2022-12-13T00:44:03;10.63;;;6.82;;
24873;SDS011;12945;42.648;23.370;2022-12-13T00:46:29;10.95;;;6.72;;
24873;SDS011;12945;42.648;23.370;2022-12-13T00:48:55;16.52;;;8.15;;
24873;SDS011;12945;42.648;23.370;2022-12-13T00:51:22;12.05;;;7.50;;
24873;SDS011;12945;42.648;23.370;2022-12-13T00:53:47;13.65;;;7.20;;
24873;SDS011;12945;42.648;23.370;2022-12-13T00:56:17;13.52;;;8.20;;
24873;SDS011;12945;42.648;23.370;2022-12-13T00:58:43;13.35;;;7.68;;
24873;SDS011;12945;42.648;23.370;2022-12-13T01:01:10;13.80;;;7.90;;
24873;SDS011;12945;42.648;23.370;2022-12-13T01:03:35;14.52;;;8.27;;
24873;SDS011;12945;42.648;23.370;2022-12-13T01:06:06;12.77;;;8.02;;
24873;SDS011;12945;42.648;23.370;2022-12-13T01:08:32;16.00;;;8.10;;
24873;SDS011;12945;42.648;23.370;2022-12-13T01:10:57;15.25;;;7.88;;
24873;SDS011;12945;42.648;23.370;2022-12-13T01:13:22;14.48;;;7.93;;
24873;SDS011;12945;42.648;23.370;2022-12-13T01:15:48;14.52;;;8.23;;
24873;SDS011;12945;42.648;23.370;2022-12-13T01:18:13;13.32;;;7.40;;
24873;SDS011;12945;42.648;23.370;2022-12-13T01:20:42;15.15;;;7.93;;
24873;SDS011;12945;42.648;23.370;2022-12-13T01:23:07;12.80;;;7.57;;
24873;SDS011;12945;42.648;23.370;2022-12-13T01:25:32;16.52;;;8.63;;
24873;SDS011;12945;42.648;23.370;2022-12-13T01:28:01;14.10;;;8.02;;
24873;SDS011;12945;42.648;23.370;2022-12-13T01:30:26;14.88;;;7.65;;
24873;SDS011;12945;42.648;23.370;2022-12-13T01:32:51;16.17;;;7.40;;
24873;SDS011;12945;42.648;23.370;2022-12-13T01:35:17;12.75;;;7.28;;
24873;SDS011;12945;42.648;23.370;2022-12-13T01:37:42;17.63;;;9.30;;
24873;SDS011;12945;42.648;23.370;2022-12-13T01:40:08;15.52;;;8.98;;
24873;SDS011;12945;42.648;23.370;2022-12-13T01:42:36;15.60;;;8.43;;
24873;SDS011;12945;42.648;23.370;2022-12-13T01:45:04;17.23;;;8.73;;
24873;SDS011;12945;42.648;23.370;2022-12-13T01:47:32;14.30;;;8.25;;
24873;SDS011;12945;42.648;23.370;2022-12-13T01:50:00;16.98;;;8.18;;
24873;SDS011;12945;42.648;23.370;2022-12-13T01:52:27;13.02;;;8.02;;
24873;SDS011;12945;42.648;23.370;2022-12-13T01:54:54;15.18;;;8.10;;
24873;SDS011;12945;42.648;23.370;2022-12-13T01:57:20;13.98;;;8.45;;
24873;SDS011;12945;42.648;23.370;2022-12-13T01:59:46;17.35;;;9.07;;
24873;SDS011;12945;42.648;23.370;2022-12-13T02:02:13;16.15;;;9.02;;
24873;SDS011;12945;42.648;23.370;2022-12-13T02:04:40;13.93;;;8.32;;
24873;SDS011;12945;42.648;23.370;2022-12-13T02:07:09;16.83;;;8.65;;
24873;SDS011;12945;42.648;23.370;2022-12-13T02:09:35;17.05;;;8.73;;
24873;SDS011;12945;42.648;23.370;2022-12-13T02:12:01;15.60;;;8.73;;
24873;SDS011;12945;42.648;23.370;2022-12-13T02:14:26;16.13;;;8.45;;
24873;SDS011;12945;42.648;23.370;2022-12-13T02:16:58;18.92;;;9.80;;
24873;SDS011;12945;42.648;23.370;2022-12-13T02:34:24;16.63;;;9.02;;
24873;SDS011;12945;42.648;23.370;2022-12-13T02:41:55;15.98;;;9.23;;
24873;SDS011;12945;42.648;23.370;2022-12-13T02:44:26;19.80;;;9.73;;
24873;SDS011;12945;42.648;23.370;2022-12-13T02:47:00;18.10;;;10.13;;
24873;SDS011;12945;42.648;23.370;2022-12-13T02:49:28;18.20;;;9.65;;
24873;SDS011;12945;42.648;23.370;2022-12-13T02:51:54;16.17;;;9.10;;
24873;SDS011;12945;42.648;23.370;2022-12-13T02:54:20;16.55;;;9.93;;
24873;SDS011;12945;42.648;23.370;2022-12-13T02:56:56;17.70;;;9.80;;
24873;SDS011;12945;42.648;23.370;2022-12-13T02:59:23;20.70;;;10.48;;
24873;SDS011;12945;42.648;23.370;2022-12-13T03:15:02;16.58;;;9.23;;
24873;SDS011;12945;42.648;23.370;2022-12-13T03:17:35;17.17;;;9.40;;
24873;SDS011;12945;42.648;23.370;2022-12-13T03:20:02;16.35;;;9.25;;
24873;SDS011;12945;42.648;23.370;2022-12-13T03:22:28;16.70;;;8.90;;
24873;SDS011;12945;42.648;23.370;2022-12-13T03:24:57;18.25;;;9.00;;
24873;SDS011;12945;42.648;23.370;2022-12-13T03:27:22;17.20;;;9.25;;
24873;SDS011;12945;42.648;23.370;2022-12-13T03:29:47;17.42;;;9.40;;
24873;SDS011;12945;42.648;23.370;2022-12-13T03:32:12;16.85;;;9.13;;
24873;SDS011;12945;42.648;23.370;2022-12-13T03:34:38;19.70;;;10.00;;
24873;SDS011;12945;42.648;23.370;2022-12-13T03:37:03;16.30;;;8.88;;
24873;SDS011;12945;42.648;23.370;2022-12-13T03:39:28;15.88;;;8.60;;
24873;SDS011;12945;42.648;23.370;2022-12-13T03:41:53;16.80;;;8.98;;
24873;SDS011;12945;42.648;23.370;2022-12-13T03:44:19;15.38;;;7.95;;
24873;SDS011;12945;42.648;23.370;2022-12-13T03:46:44;18.05;;;8.43;;
24873;SDS011;12945;42.648;23.370;2022-12-13T03:49:09;17.55;;;9.57;;
24873;SDS011;12945;42.648;23.370;2022-12-13T03:51:35;18.17;;;10.30;;
24873;SDS011;12945;42.648;23.370;2022-12-13T03:54:00;18.73;;;10.20;;
24873;SDS011;12945;42.648;23.370;2022-12-13T03:56:25;16.70;;;9.90;;
24873;SDS011;12945;42.648;23.370;2022-12-13T03:58:50;17.75;;;9.45;;
24873;SDS011;12945;42.648;23.370;2022-12-13T04:01:16;15.80;;;8.88;;
24873;SDS011;12945;42.648;23.370;2022-12-13T04:03:42;19.10;;;9.65;;
24873;SDS011;12945;42.648;23.370;2022-12-13T04:06:08;19.10;;;9.82;;
24873;SDS011;12945;42.648;23.370;2022-12-13T04:08:33;20.27;;;10.15;;
24873;SDS011;12945;42.648;23.370;2022-12-13T04:10:59;18.77;;;9.73;;
24873;SDS011;12945;42.648;23.370;2022-12-13T04:13:44;17.23;;;9.88;;
24873;SDS011;12945;42.648;23.370;2022-12-13T04:16:09;20.48;;;9.95;;
24873;SDS011;12945;42.648;23.370;2022-12-13T04:18:35;17.45;;;9.63;;
24873;SDS011;12945;42.648;23.370;2022-12-13T04:21:00;18.02;;;9.75;;
24873;SDS011;12945;42.648;23.370;2022-12-13T04:23:25;17.75;;;10.13;;
24873;SDS011;12945;42.648;23.370;2022-12-13T04:25:50;23.20;;;10.57;;
24873;SDS011;12945;42.648;23.370;2022-12-13T04:28:16;19.23;;;10.63;;
24873;SDS011;12945;42.648;23.370;2022-12-13T04:30:41;19.30;;;10.55;;
24873;SDS011;12945;42.648;23.370;2022-12-13T04:33:06;22.42;;;10.73;;
24873;SDS011;12945;42.648;23.370;2022-12-13T04:35:32;21.48;;;10.80;;
24873;SDS011;12945;42.648;23.370;2022-12-13T04:37:57;18.77;;;10.93;;
24873;SDS011;12945;42.648;23.370;2022-12-13T04:40:22;21.30;;;11.65;;
24873;SDS011;12945;42.648;23.370;2022-12-13T04:42:48;20.15;;;11.05;;
24873;SDS011;12945;42.648;23.370;2022-12-13T04:45:14;20.40;;;10.95;;
24873;SDS011;12945;42.648;23.370;2022-12-13T04:47:40;23.83;;;12.02;;
24873;SDS011;12945;42.648;23.370;2022-12-13T04:50:06;22.20;;;12.15;;
24873;SDS011;12945;42.648;23.370;2022-12-13T04:52:31;23.08;;;12.38;;
24873;SDS011;12945;42.648;23.370;2022-12-13T04:54:56;22.90;;;11.70;;
24873;SDS011;12945;42.648;23.370;2022-12-13T04:57:22;21.90;;;11.60;;
24873;SDS011;12945;42.648;23.370;2022-12-13T04:59:47;22.45;;;12.25;;
24873;SDS011;12945;42.648;23.370;2022-12-13T05:02:12;20.40;;;12.15;;
24873;SDS011;12945;42.648;23.370;2022-12-13T05:04:38;22.48;;;13.15;;
24873;SDS011;12945;42.648;23.370;2022-12-13T05:07:03;26.15;;;13.43;;
24873;SDS011;12945;42.648;23.370;2022-12-13T05:09:28;27.88;;;14.05;;
24873;SDS011;12945;42.648;23.370;2022-12-13T05:11:54;26.20;;;12.35;;
24873;SDS011;12945;42.648;23.370;2022-12-13T05:14:19;22.30;;;11.52;;
24873;SDS011;12945;42.648;23.370;2022-12-13T05:16:44;25.55;;;12.80;;
24873;SDS011;12945;42.648;23.370;2022-12-13T05:19:10;25.55;;;13.30;;
24873;SDS011;12945;42.648;23.370;2022-12-13T05:21:35;24.33;;;11.77;;
24873;SDS011;12945;42.648;23.370;2022-12-13T05:24:01;24.48;;;12.25;;
24873;SDS011;12945;42.648;23.370;2022-12-13T05:26:26;20.85;;;11.15;;
24873;SDS011;12945;42.648;23.370;2022-12-13T05:28:53;22.25;;;11.95;;
24873;SDS011;12945;42.648;23.370;2022-12-13T05:31:19;22.92;;;11.38;;
24873;SDS011;12945;42.648;23.370;2022-12-13T05:33:44;25.13;;;11.63;;
24873;SDS011;12945;42.648;23.370;2022-12-13T05:36:10;21.83;;;11.23;;
24873;SDS011;12945;42.648;23.370;2022-12-13T05:38:35;20.63;;;10.80;;
24873;SDS011;12945;42.648;23.370;2022-12-13T05:41:00;22.33;;;11.27;;
24873;SDS011;12945;42.648;23.370;2022-12-13T05:43:26;20.85;;;10.55;;
24873;SDS011;12945;42.648;23.370;2022-12-13T05:45:51;22.48;;;11.48;;
24873;SDS011;12945;42.648;23.370;2022-12-13T05:48:16;21.52;;;10.32;;
24873;SDS011;12945;42.648;23.370;2022-12-13T05:50:42;22.27;;;10.73;;
24873;SDS011;12945;42.648;23.370;2022-12-13T05:53:08;23.33;;;10.50;;
24873;SDS011;12945;42.648;23.370;2022-12-13T05:55:34;19.95;;;10.98;;
24873;SDS011;12945;42.648;23.370;2022-12-13T05:58:00;24.02;;;11.68;;
24873;SDS011;12945;42.648;23.370;2022-12-13T06:00:26;21.67;;;10.50;;
24873;SDS011;12945;42.648;23.370;2022-12-13T06:02:51;24.23;;;12.00;;
24873;SDS011;12945;42.648;23.370;2022-12-13T06:05:16;24.42;;;11.40;;
24873;SDS011;12945;42.648;23.370;2022-12-13T06:07:42;23.75;;;11.85;;
24873;SDS011;12945;42.648;23.370;2022-12-13T06:10:07;22.83;;;11.43;;
24873;SDS011;12945;42.648;23.370;2022-12-13T06:12:33;27.02;;;13.65;;
24873;SDS011;12945;42.648;23.370;2022-12-13T06:14:58;21.70;;;11.70;;
24873;SDS011;12945;42.648;23.370;2022-12-13T06:17:24;24.88;;;11.45;;
24873;SDS011;12945;42.648;23.370;2022-12-13T06:19:49;20.15;;;11.65;;
24873;SDS011;12945;42.648;23.370;2022-12-13T06:22:15;22.65;;;11.77;;
24873;SDS011;12945;42.648;23.370;2022-12-13T06:24:40;21.77;;;12.00;;
24873;SDS011;12945;42.648;23.370;2022-12-13T06:27:05;22.08;;;12.55;;
24873;SDS011;12945;42.648;23.370;2022-12-13T06:29:31;24.10;;;12.55;;
24873;SDS011;12945;42.648;23.370;2022-12-13T06:31:57;25.92;;;13.20;;
24873;SDS011;12945;42.648;23.370;2022-12-13T06:34:22;27.10;;;13.50;;
24873;SDS011;12945;42.648;23.370;2022-12-13T06:36:48;25.88;;;13.68;;
24873;SDS011;12945;42.648;23.370;2022-12-13T06:39:13;29.20;;;14.55;;
24873;SDS011;12945;42.648;23.370;2022-12-13T06:41:39;24.60;;;13.20;;
24873;SDS011;12945;42.648;23.370;2022-12-13T06:44:05;24.83;;;13.10;;
24873;SDS011;12945;42.648;23.370;2022-12-13T06:46:30;27.75;;;13.75;;
24873;SDS011;12945;42.648;23.370;2022-12-13T06:48:56;22.98;;;12.85;;
24873;SDS011;12945;42.648;23.370;2022-12-13T06:51:21;26.08;;;14.27;;
24873;SDS011;12945;42.648;23.370;2022-12-13T06:53:46;25.77;;;13.90;;
24873;SDS011;12945;42.648;23.370;2022-12-13T06:56:12;25.42;;;12.77;;
24873;SDS011;12945;42.648;23.370;2022-12-13T06:58:38;24.52;;;12.30;;
24873;SDS011;12945;42.648;23.370;2022-12-13T07:01:05;23.83;;;12.40;;
24873;SDS011;12945;42.648;23.370;2022-12-13T07:03:30;23.73;;;13.65;;
24873;SDS011;12945;42.648;23.370;2022-12-13T07:05:57;26.40;;;13.77;;
24873;SDS011;12945;42.648;23.370;2022-12-13T07:08:22;29.33;;;14.30;;
24873;SDS011;12945;42.648;23.370;2022-12-13T07:10:47;27.58;;;13.90;;
24873;SDS011;12945;42.648;23.370;2022-12-13T07:13:13;36.17;;;17.85;;
24873;SDS011;12945;42.648;23.370;2022-12-13T07:15:38;27.00;;;14.15;;
24873;SDS011;12945;42.648;23.370;2022-12-13T07:18:03;24.90;;;12.93;;
24873;SDS011;12945;42.648;23.370;2022-12-13T07:20:29;25.35;;;13.70;;
24873;SDS011;12945;42.648;23.370;2022-12-13T07:22:54;24.98;;;13.23;;
24873;SDS011;12945;42.648;23.370;2022-12-13T07:25:20;32.03;;;14.40;;
24873;SDS011;12945;42.648;23.370;2022-12-13T07:27:46;23.40;;;13.23;;
24873;SDS011;12945;42.648;23.370;2022-12-13T07:30:11;26.60;;;14.93;;
24873;SDS011;12945;42.648;23.370;2022-12-13T07:32:37;30.10;;;13.20;;
24873;SDS011;12945;42.648;23.370;2022-12-13T07:35:02;23.17;;;12.50;;
24873;SDS011;12945;42.648;23.370;2022-12-13T07:37:27;25.10;;;13.20;;
24873;SDS011;12945;42.648;23.370;2022-12-13T07:39:52;23.08;;;12.68;;
24873;SDS011;12945;42.648;23.370;2022-12-13T07:42:18;27.25;;;13.32;;
24873;SDS011;12945;42.648;23.370;2022-12-13T07:44:43;23.10;;;13.13;;
24873;SDS011;12945;42.648;23.370;2022-12-13T07:47:08;25.08;;;13.63;;
24873;SDS011;12945;42.648;23.370;2022-12-13T07:49:34;23.63;;;13.02;;
24873;SDS011;12945;42.648;23.370;2022-12-13T07:51:59;24.52;;;13.02;;
24873;SDS011;12945;42.648;23.370;2022-12-13T07:54:24;21.10;;;12.18;;
24873;SDS011;12945;42.648;23.370;2022-12-13T07:56:50;22.13;;;12.32;;
24873;SDS011;12945;42.648;23.370;2022-12-13T07:59:15;25.30;;;12.75;;
24873;SDS011;12945;42.648;23.370;2022-12-13T08:01:40;21.35;;;11.27;;
24873;SDS011;12945;42.648;23.370;2022-12-13T08:04:06;20.02;;;10.93;;
24873;SDS011;12945;42.648;23.370;2022-12-13T08:06:34;24.05;;;12.90;;
24873;SDS011;12945;42.648;23.370;2022-12-13T08:09:00;24.17;;;13.02;;
24873;SDS011;12945;42.648;23.370;2022-12-13T08:11:26;21.75;;;12.48;;
24873;SDS011;12945;42.648;23.370;2022-12-13T08:13:54;23.98;;;12.38;;
24873;SDS011;12945;42.648;23.370;2022-12-13T08:16:19;21.98;;;12.07;;
24873;SDS011;12945;42.648;23.370;2022-12-13T08:18:45;20.98;;;10.43;;
24873;SDS011;12945;42.648;23.370;2022-12-13T08:21:12;20.85;;;10.90;;
24873;SDS011;12945;42.648;23.370;2022-12-13T08:23:37;20.75;;;10.98;;
24873;SDS011;12945;42.648;23.370;2022-12-13T08:26:03;19.70;;;11.05;;
24873;SDS011;12945;42.648;23.370;2022-12-13T08:28:29;20.35;;;11.40;;
24873;SDS011;12945;42.648;23.370;2022-12-13T08:30:55;20.40;;;11.65;;
24873;SDS011;12945;42.648;23.370;2022-12-13T08:33:25;20.05;;;11.13;;
24873;SDS011;12945;42.648;23.370;2022-12-13T08:35:51;21.80;;;11.70;;
24873;SDS011;12945;42.648;23.370;2022-12-13T08:38:16;17.95;;;10.32;;
24873;SDS011;12945;42.648;23.370;2022-12-13T08:40:41;18.98;;;10.43;;
24873;SDS011;12945;42.648;23.370;2022-12-13T08:43:06;23.02;;;11.13;;
24873;SDS011;12945;42.648;23.370;2022-12-13T08:45:32;20.40;;;10.95;;
24873;SDS011;12945;42.648;23.370;2022-12-13T08:47:58;20.20;;;10.98;;
24873;SDS011;12945;42.648;23.370;2022-12-13T08:50:24;22.85;;;10.85;;
24873;SDS011;12945;42.648;23.370;2022-12-13T08:52:49;25.48;;;11.38;;
24873;SDS011;12945;42.648;23.370;2022-12-13T08:55:15;19.83;;;10.65;;
24873;SDS011;12945;42.648;23.370;2022-12-13T08:57:41;19.20;;;10.35;;
24873;SDS011;12945;42.648;23.370;2022-12-13T09:00:07;17.08;;;9.70;;
24873;SDS011;12945;42.648;23.370;2022-12-13T09:02:33;21.25;;;10.95;;
24873;SDS011;12945;42.648;23.370;2022-12-13T09:04:58;19.88;;;10.55;;
24873;SDS011;12945;42.648;23.370;2022-12-13T09:07:24;21.95;;;12.05;;
24873;SDS011;12945;42.648;23.370;2022-12-13T09:09:49;23.00;;;12.20;;
24873;SDS011;12945;42.648;23.370;2022-12-13T09:12:14;23.20;;;12.15;;
24873;SDS011;12945;42.648;23.370;2022-12-13T09:14:39;25.63;;;12.68;;
24873;SDS011;12945;42.648;23.370;2022-12-13T09:17:05;24.42;;;13.57;;
24873;SDS011;12945;42.648;23.370;2022-12-13T09:19:31;26.55;;;14.15;;
24873;SDS011;12945;42.648;23.370;2022-12-13T09:21:56;30.70;;;14.35;;
24873;SDS011;12945;42.648;23.370;2022-12-13T09:24:21;28.45;;;14.60;;
24873;SDS011;12945;42.648;23.370;2022-12-13T09:26:47;23.92;;;13.45;;
24873;SDS011;12945;42.648;23.370;2022-12-13T09:29:12;20.77;;;11.93;;
24873;SDS011;12945;42.648;23.370;2022-12-13T09:31:40;17.33;;;10.23;;
24873;SDS011;12945;42.648;23.370;2022-12-13T09:34:05;19.13;;;11.15;;
24873;SDS011;12945;42.648;23.370;2022-12-13T09:36:31;22.08;;;11.35;;
24873;SDS011;12945;42.648;23.370;2022-12-13T09:38:56;22.73;;;12.68;;
24873;SDS011;12945;42.648;23.370;2022-12-13T09:41:27;25.40;;;14.15;;
24873;SDS011;12945;42.648;23.370;2022-12-13T09:43:56;19.10;;;10.48;;
24873;SDS011;12945;42.648;23.370;2022-12-13T09:46:33;18.45;;;10.82;;
24873;SDS011;12945;42.648;23.370;2022-12-13T09:49:00;20.58;;;12.60;;
24873;SDS011;12945;42.648;23.370;2022-12-13T09:51:26;19.48;;;10.85;;
24873;SDS011;12945;42.648;23.370;2022-12-13T09:53:51;19.08;;;11.35;;
24873;SDS011;12945;42.648;23.370;2022-12-13T09:56:18;21.00;;;12.10;;
24873;SDS011;12945;42.648;23.370;2022-12-13T09:58:46;20.95;;;12.68;;
24873;SDS011;12945;42.648;23.370;2022-12-13T10:01:12;22.90;;;13.13;;
24873;SDS011;12945;42.648;23.370;2022-12-13T10:03:38;33.92;;;17.27;;
24873;SDS011;12945;42.648;23.370;2022-12-13T10:06:15;30.33;;;17.13;;
24873;SDS011;12945;42.648;23.370;2022-12-13T10:08:42;24.77;;;13.88;;
24873;SDS011;12945;42.648;23.370;2022-12-13T10:11:15;22.35;;;13.48;;
24873;SDS011;12945;42.648;23.370;2022-12-13T10:13:42;18.98;;;12.23;;
24873;SDS011;12945;42.648;23.370;2022-12-13T10:16:10;22.30;;;12.73;;
24873;SDS011;12945;42.648;23.370;2022-12-13T10:18:38;20.85;;;12.00;;
24873;SDS011;12945;42.648;23.370;2022-12-13T10:21:39;20.98;;;11.82;;
24873;SDS011;12945;42.648;23.370;2022-12-13T10:24:02;18.65;;;11.85;;
24873;SDS011;12945;42.648;23.370;2022-12-13T10:26:33;19.75;;;12.52;;
24873;SDS011;12945;42.648;23.370;2022-12-13T10:29:02;24.58;;;13.73;;
24873;SDS011;12945;42.648;23.370;2022-12-13T10:31:28;29.40;;;15.57;;
24873;SDS011;12945;42.648;23.370;2022-12-13T10:33:54;26.67;;;15.13;;
24873;SDS011;12945;42.648;23.370;2022-12-13T10:36:33;27.00;;;15.95;;
24873;SDS011;12945;42.648;23.370;2022-12-13T10:38:59;27.45;;;16.63;;
24873;SDS011;12945;42.648;23.370;2022-12-13T10:41:32;24.15;;;15.10;;
24873;SDS011;12945;42.648;23.370;2022-12-13T10:46:36;25.58;;;14.45;;
24873;SDS011;12945;42.648;23.370;2022-12-13T10:49:02;21.17;;;12.68;;
24873;SDS011;12945;42.648;23.370;2022-12-13T10:51:28;17.75;;;11.70;;
24873;SDS011;12945;42.648;23.370;2022-12-13T10:54:01;14.60;;;9.93;;
24873;SDS011;12945;42.648;23.370;2022-12-13T10:56:36;13.60;;;8.43;;
24873;SDS011;12945;42.648;23.370;2022-12-13T11:01:39;15.13;;;9.50;;
24873;SDS011;12945;42.648;23.370;2022-12-13T11:04:19;14.18;;;8.75;;
24873;SDS011;12945;42.648;23.370;2022-12-13T11:06:45;14.48;;;9.40;;
24873;SDS011;12945;42.648;23.370;2022-12-13T11:09:24;15.98;;;9.43;;
24873;SDS011;12945;42.648;23.370;2022-12-13T11:11:49;16.45;;;9.13;;
24873;SDS011;12945;42.648;23.370;2022-12-13T11:14:16;17.17;;;11.05;;
24873;SDS011;12945;42.648;23.370;2022-12-13T11:16:42;16.88;;;10.32;;
24873;SDS011;12945;42.648;23.370;2022-12-13T11:19:20;15.32;;;9.45;;
24873;SDS011;12945;42.648;23.370;2022-12-13T11:21:48;17.23;;;10.75;;
24873;SDS011;12945;42.648;23.370;2022-12-13T11:24:19;16.48;;;10.85;;
24873;SDS011;12945;42.648;23.370;2022-12-13T11:26:45;20.42;;;11.15;;
24873;SDS011;12945;42.648;23.370;2022-12-13T11:29:27;14.85;;;10.15;;
24873;SDS011;12945;42.648;23.370;2022-12-13T11:44:40;14.43;;;9.45;;
24873;SDS011;12945;42.648;23.370;2022-12-13T11:47:11;11.80;;;7.90;;
24873;SDS011;12945;42.648;23.370;2022-12-13T11:57:28;15.30;;;8.77;;
24873;SDS011;12945;42.648;23.370;2022-12-13T11:59:57;17.92;;;9.63;;
24873;SDS011;12945;42.648;23.370;2022-12-13T12:04:54;14.07;;;9.60;;
24873;SDS011;12945;42.648;23.370;2022-12-13T12:07:25;12.63;;;9.02;;
24873;SDS011;12945;42.648;23.370;2022-12-13T12:10:02;20.00;;;10.27;;
24873;SDS011;12945;42.648;23.370;2022-12-13T12:12:32;12.73;;;8.80;;
24873;SDS011;12945;42.648;23.370;2022-12-13T12:17:31;12.75;;;8.70;;
24873;SDS011;12945;42.648;23.370;2022-12-13T12:19:56;14.68;;;9.68;;
24873;SDS011;12945;42.648;23.370;2022-12-13T12:25:13;14.40;;;9.50;;
24873;SDS011;12945;42.648;23.370;2022-12-13T12:27:56;13.40;;;8.48;;
24873;SDS011;12945;42.648;23.370;2022-12-13T12:38:13;13.95;;;8.95;;
24873;SDS011;12945;42.648;23.370;2022-12-13T12:43:26;13.52;;;9.32;;
24873;SDS011;12945;42.648;23.370;2022-12-13T12:46:07;13.73;;;9.50;;
24873;SDS011;12945;42.648;23.370;2022-12-13T12:51:13;15.75;;;10.43;;
24873;SDS011;12945;42.648;23.370;2022-12-13T12:53:46;17.40;;;9.45;;
24873;SDS011;12945;42.648;23.370;2022-12-13T13:04:00;13.65;;;8.50;;
24873;SDS011;12945;42.648;23.370;2022-12-13T13:09:00;16.27;;;10.43;;
24873;SDS011;12945;42.648;23.370;2022-12-13T13:11:28;15.82;;;10.50;;
24873;SDS011;12945;42.648;23.370;2022-12-13T13:16:29;20.70;;;13.57;;
24873;SDS011;12945;42.648;23.370;2022-12-13T13:21:50;15.05;;;10.38;;
24873;SDS011;12945;42.648;23.370;2022-12-13T13:27:26;27.58;;;16.33;;
24873;SDS011;12945;42.648;23.370;2022-12-13T13:29:52;24.42;;;15.45;;
24873;SDS011;12945;42.648;23.370;2022-12-13T13:32:24;32.70;;;19.50;;
24873;SDS011;12945;42.648;23.370;2022-12-13T13:34:50;36.78;;;18.38;;
24873;SDS011;12945;42.648;23.370;2022-12-13T13:42:18;23.02;;;15.00;;
24873;SDS011;12945;42.648;23.370;2022-12-13T13:47:14;23.50;;;13.10;;
24873;SDS011;12945;42.648;23.370;2022-12-13T14:10:42;25.15;;;12.63;;
24873;SDS011;12945;42.648;23.370;2022-12-13T14:13:33;26.23;;;15.07;;
24873;SDS011;12945;42.648;23.370;2022-12-13T14:29:33;36.05;;;20.83;;
24873;SDS011;12945;42.648;23.370;2022-12-13T14:32:03;46.33;;;23.17;;
24873;SDS011;12945;42.648;23.370;2022-12-13T14:34:33;42.40;;;23.23;;
24873;SDS011;12945;42.648;23.370;2022-12-13T14:39:24;49.65;;;24.23;;
24873;SDS011;12945;42.648;23.370;2022-12-13T14:41:51;46.13;;;25.17;;
24873;SDS011;12945;42.648;23.370;2022-12-13T14:47:10;49.17;;;25.60;;
24873;SDS011;12945;42.648;23.370;2022-12-13T14:49:35;49.47;;;25.15;;
24873;SDS011;12945;42.648;23.370;2022-12-13T14:52:14;52.67;;;25.67;;
24873;SDS011;12945;42.648;23.370;2022-12-13T14:55:41;51.30;;;25.73;;
24873;SDS011;12945;42.648;23.370;2022-12-13T14:57:35;54.00;;;25.98;;
24873;SDS011;12945;42.648;23.370;2022-12-13T15:00:18;49.13;;;26.75;;
24873;SDS011;12945;42.648;23.370;2022-12-13T15:02:49;52.67;;;27.20;;
24873;SDS011;12945;42.648;23.370;2022-12-13T15:07:41;49.15;;;25.85;;
24873;SDS011;12945;42.648;23.370;2022-12-13T15:12:44;54.55;;;26.48;;
24873;SDS011;12945;42.648;23.370;2022-12-13T15:15:22;53.58;;;26.30;;
24873;SDS011;12945;42.648;23.370;2022-12-13T15:17:48;47.88;;;26.13;;
24873;SDS011;12945;42.648;23.370;2022-12-13T15:20:29;38.42;;;20.08;;
24873;SDS011;12945;42.648;23.370;2022-12-13T15:23:05;54.97;;;27.00;;
24873;SDS011;12945;42.648;23.370;2022-12-13T15:25:32;55.65;;;25.48;;
24873;SDS011;12945;42.648;23.370;2022-12-13T15:27:57;55.97;;;27.95;;
24873;SDS011;12945;42.648;23.370;2022-12-13T15:30:23;52.60;;;26.08;;
24873;SDS011;12945;42.648;23.370;2022-12-13T15:33:05;61.35;;;29.27;;
24873;SDS011;12945;42.648;23.370;2022-12-13T15:35:31;62.50;;;29.50;;
24873;SDS011;12945;42.648;23.370;2022-12-13T15:37:57;62.17;;;30.38;;
24873;SDS011;12945;42.648;23.370;2022-12-13T15:40:22;63.28;;;30.63;;
24873;SDS011;12945;42.648;23.370;2022-12-13T15:42:47;56.22;;;28.73;;
24873;SDS011;12945;42.648;23.370;2022-12-13T15:45:19;54.58;;;28.42;;
24873;SDS011;12945;42.648;23.370;2022-12-13T15:47:45;64.35;;;29.95;;
24873;SDS011;12945;42.648;23.370;2022-12-13T15:52:59;57.40;;;29.23;;
24873;SDS011;12945;42.648;23.370;2022-12-13T15:55:26;56.67;;;28.02;;
24873;SDS011;12945;42.648;23.370;2022-12-13T15:57:56;54.33;;;28.73;;
24873;SDS011;12945;42.648;23.370;2022-12-13T16:05:17;47.60;;;24.88;;
24873;SDS011;12945;42.648;23.370;2022-12-13T16:07:47;42.53;;;21.02;;
24873;SDS011;12945;42.648;23.370;2022-12-13T16:10:15;47.08;;;21.10;;
24873;SDS011;12945;42.648;23.370;2022-12-13T16:12:42;41.90;;;22.50;;
24873;SDS011;12945;42.648;23.370;2022-12-13T16:15:15;45.40;;;22.88;;
24873;SDS011;12945;42.648;23.370;2022-12-13T16:17:41;42.00;;;23.30;;
24873;SDS011;12945;42.648;23.370;2022-12-13T16:20:09;40.35;;;21.70;;
24873;SDS011;12945;42.648;23.370;2022-12-13T16:22:36;38.67;;;20.58;;
24873;SDS011;12945;42.648;23.370;2022-12-13T16:25:02;35.47;;;19.42;;
24873;SDS011;12945;42.648;23.370;2022-12-13T16:27:28;31.42;;;16.30;;
24873;SDS011;12945;42.648;23.370;2022-12-13T16:29:53;34.60;;;17.52;;
24873;SDS011;12945;42.648;23.370;2022-12-13T16:32:18;31.63;;;17.25;;
24873;SDS011;12945;42.648;23.370;2022-12-13T16:34:44;32.15;;;16.80;;
24873;SDS011;12945;42.648;23.370;2022-12-13T16:37:09;36.63;;;19.33;;
24873;SDS011;12945;42.648;23.370;2022-12-13T16:39:35;39.35;;;20.52;;
24873;SDS011;12945;42.648;23.370;2022-12-13T16:42:00;40.08;;;20.58;;
24873;SDS011;12945;42.648;23.370;2022-12-13T16:44:35;33.10;;;18.40;;
24873;SDS011;12945;42.648;23.370;2022-12-13T16:47:01;41.42;;;21.33;;
24873;SDS011;12945;42.648;23.370;2022-12-13T16:49:28;42.00;;;22.20;;
24873;SDS011;12945;42.648;23.370;2022-12-13T16:51:53;42.50;;;23.27;;